createdAt,value
2023-02-28T00:02:00.466Z,5.22
2023-02-28T00:04:49.342Z,4.83
2023-02-28T00:07:37.247Z,4.90
2023-02-28T00:10:27.559Z,8.63
2023-02-28T00:13:15.017Z,4.92
2023-02-28T00:16:04.776Z,5.50
2023-02-28T00:18:52.136Z,5.92
2023-02-28T00:21:41.070Z,4.70
2023-02-28T00:24:28.185Z,4.35
2023-02-28T00:27:15.952Z,6.70
2023-02-28T00:30:03.499Z,5.85
2023-02-28T00:32:52.120Z,6.15
2023-02-28T00:35:39.569Z,7.95
2023-02-28T00:38:26.909Z,7.75
2023-02-28T00:41:14.369Z,8.05
2023-02-28T00:44:01.689Z,6.47
2023-02-28T00:46:48.972Z,5.28
2023-02-28T00:49:36.467Z,6.95
2023-02-28T00:52:23.811Z,9.73
2023-02-28T00:55:11.063Z,6.87
2023-02-28T00:57:58.047Z,6.40
2023-02-28T01:00:47.064Z,6.60
2023-02-28T01:03:34.994Z,7.53
2023-02-28T01:06:22.046Z,6.55
2023-02-28T01:09:09.771Z,7.55
2023-02-28T01:11:56.989Z,7.62
2023-02-28T01:14:44.569Z,6.90
2023-02-28T01:17:31.526Z,8.18
2023-02-28T01:20:19.127Z,8.30
2023-02-28T01:23:06.262Z,8.70
2023-02-28T01:25:54.075Z,7.58
2023-02-28T01:28:41.822Z,6.45
2023-02-28T01:31:29.600Z,8.33
2023-02-28T01:34:17.166Z,10.15
2023-02-28T01:37:04.478Z,8.30
2023-02-28T01:39:56.699Z,7.53
2023-02-28T01:42:43.850Z,6.50
2023-02-28T01:45:32.342Z,7.33
2023-02-28T01:48:20.974Z,7.17
2023-02-28T01:51:17.032Z,7.80
2023-02-28T01:54:07.125Z,8.43
2023-02-28T01:56:57.267Z,6.42
2023-02-28T01:59:52.328Z,8.70
2023-02-28T02:02:42.469Z,6.83
2023-02-28T02:05:33.524Z,5.58
2023-02-28T02:08:23.745Z,6.90
2023-02-28T02:11:13.426Z,8.20
2023-02-28T02:14:29.558Z,9.05
2023-02-28T02:17:25.929Z,8.00
2023-02-28T02:20:18.884Z,7.15
2023-02-28T02:23:25.619Z,5.65
2023-02-28T02:26:50.608Z,8.58
2023-02-28T02:29:49.419Z,7.00
2023-02-28T02:33:04.382Z,8.05
2023-02-28T02:36:22.193Z,6.40
2023-02-28T02:42:00.799Z,6.20
2023-02-28T02:45:00.568Z,6.30
2023-02-28T02:47:47.914Z,7.62
2023-02-28T02:50:47.206Z,6.22
2023-02-28T02:53:37.876Z,6.78
2023-02-28T02:56:28.872Z,7.85
2023-02-28T02:59:22.585Z,5.72
2023-02-28T03:02:13.472Z,5.58
2023-02-28T03:05:03.660Z,6.30
2023-02-28T03:07:51.169Z,7.42
2023-02-28T03:10:44.803Z,7.10
2023-02-28T03:13:57.520Z,5.33
2023-02-28T03:17:06.076Z,6.50
2023-02-28T03:20:11.684Z,6.45
2023-02-28T03:23:07.441Z,6.80
2023-02-28T03:26:06.740Z,6.87
2023-02-28T03:29:03.788Z,5.50
2023-02-28T03:31:54.488Z,5.92
2023-02-28T03:34:44.777Z,11.12
2023-02-28T03:37:36.193Z,7.80
2023-02-28T03:40:26.575Z,6.62
2023-02-28T03:43:17.255Z,9.78
2023-02-28T03:46:07.723Z,7.58
2023-02-28T03:49:01.528Z,6.53
2023-02-28T03:51:50.276Z,7.58
2023-02-28T03:54:50.089Z,7.42
2023-02-28T03:58:04.785Z,9.45
2023-02-28T04:00:55.266Z,9.80
2023-02-28T04:03:42.972Z,6.97
2023-02-28T04:06:33.493Z,6.37
2023-02-28T04:09:20.966Z,7.62
2023-02-28T04:12:08.739Z,7.12
2023-02-28T04:14:56.582Z,7.05
2023-02-28T04:17:43.898Z,6.45
2023-02-28T04:20:31.213Z,8.35
2023-02-28T04:23:18.845Z,6.75
2023-02-28T04:26:06.990Z,6.87
2023-02-28T04:28:54.164Z,6.25
2023-02-28T04:31:41.754Z,8.38
2023-02-28T04:34:31.235Z,6.45
2023-02-28T04:37:18.693Z,6.58
2023-02-28T04:40:05.819Z,13.65
2023-02-28T04:42:53.377Z,5.87
2023-02-28T04:45:40.956Z,5.33
2023-02-28T04:48:29.993Z,8.35
2023-02-28T04:51:20.777Z,9.35
2023-02-28T04:54:08.470Z,7.22
2023-02-28T04:56:55.756Z,5.53
2023-02-28T04:59:44.751Z,5.45
2023-02-28T05:02:32.092Z,5.67
2023-02-28T05:05:19.491Z,6.30
2023-02-28T05:08:06.582Z,6.35
2023-02-28T05:10:55.059Z,5.95
2023-02-28T05:13:42.107Z,5.05
2023-02-28T05:16:29.600Z,4.80
2023-02-28T05:19:16.977Z,4.83
2023-02-28T05:22:04.086Z,4.30
2023-02-28T05:24:51.549Z,6.33
2023-02-28T05:27:39.033Z,4.85
2023-02-28T05:30:26.124Z,4.83
2023-02-28T05:33:13.961Z,5.47
2023-02-28T05:36:01.080Z,5.70
2023-02-28T05:38:51.946Z,8.15
2023-02-28T05:41:39.545Z,5.42
2023-02-28T05:44:26.887Z,6.50
2023-02-28T05:47:15.885Z,5.35
2023-02-28T05:50:03.598Z,6.65
2023-02-28T05:52:54.228Z,4.92
2023-02-28T05:55:42.033Z,4.78
2023-02-28T05:58:32.029Z,4.33
2023-02-28T06:01:35.400Z,5.12
2023-02-28T06:04:31.525Z,4.10
2023-02-28T06:07:12.937Z,9.08
2023-02-28T06:10:02.152Z,7.42
2023-02-28T06:12:49.497Z,5.08
2023-02-28T06:15:36.889Z,6.85
2023-02-28T06:18:23.999Z,18.75
2023-02-28T06:21:11.185Z,4.40
2023-02-28T06:23:59.921Z,6.35
2023-02-28T06:26:47.533Z,8.08
2023-02-28T06:29:36.360Z,7.33
2023-02-28T06:32:24.416Z,5.08
2023-02-28T06:35:11.664Z,11.45
2023-02-28T06:37:59.124Z,5.00
2023-02-28T06:40:48.857Z,5.83
2023-02-28T06:43:42.287Z,7.12
2023-02-28T06:46:29.755Z,4.92
2023-02-28T06:49:17.462Z,5.65
2023-02-28T06:52:04.995Z,7.92
2023-02-28T06:54:54.023Z,6.35
2023-02-28T06:57:41.217Z,7.65
2023-02-28T07:00:28.431Z,6.03
2023-02-28T07:03:16.553Z,5.72
2023-02-28T07:06:04.946Z,11.10
2023-02-28T07:08:54.062Z,11.28
2023-02-28T07:11:41.781Z,5.85
2023-02-28T07:14:29.160Z,7.03
2023-02-28T07:17:16.216Z,10.88
2023-02-28T07:20:05.545Z,5.65
2023-02-28T07:22:54.550Z,7.83
2023-02-28T07:25:41.658Z,7.05
2023-02-28T07:28:29.066Z,7.30
2023-02-28T07:31:17.181Z,7.97
2023-02-28T07:34:04.058Z,7.10
2023-02-28T07:36:54.273Z,7.97
2023-02-28T07:39:45.380Z,8.08
2023-02-28T07:42:32.621Z,7.67
2023-02-28T07:45:20.440Z,7.58
2023-02-28T07:48:09.608Z,9.38
2023-02-28T07:50:58.063Z,5.53
2023-02-28T07:53:45.374Z,6.95
2023-02-28T07:56:33.081Z,6.45
2023-02-28T07:59:19.987Z,7.60
2023-02-28T08:02:07.084Z,5.60
2023-02-28T08:04:54.542Z,7.90
2023-02-28T08:07:42.056Z,6.28
2023-02-28T08:10:29.389Z,9.73
2023-02-28T08:13:16.791Z,7.58
2023-02-28T08:16:04.690Z,6.28
2023-02-28T08:18:53.817Z,7.75
2023-02-28T08:21:41.107Z,12.15
2023-02-28T08:24:28.168Z,11.45
2023-02-28T08:27:17.057Z,13.00
2023-02-28T08:30:05.237Z,9.03
2023-02-28T08:32:52.495Z,7.97
2023-02-28T08:35:39.699Z,11.95
2023-02-28T08:38:27.199Z,8.93
2023-02-28T08:41:15.231Z,14.65
2023-02-28T08:44:02.686Z,8.28
2023-02-28T08:46:50.145Z,8.08
2023-02-28T08:49:38.450Z,8.23
2023-02-28T08:52:25.938Z,8.98
2023-02-28T08:55:13.137Z,7.53
2023-02-28T08:58:02.057Z,6.00
2023-02-28T09:00:49.288Z,5.95
2023-02-28T09:03:36.491Z,12.53
2023-02-28T09:06:25.589Z,8.10
2023-02-28T09:09:12.712Z,6.80
2023-02-28T09:11:59.980Z,6.37
2023-02-28T09:14:47.287Z,5.05
2023-02-28T09:17:34.664Z,6.55
2023-02-28T09:20:21.924Z,7.97
2023-02-28T09:23:10.242Z,9.08
2023-02-28T09:25:57.524Z,6.47
2023-02-28T09:28:44.691Z,6.30
2023-02-28T09:31:32.156Z,7.92
2023-02-28T09:34:19.606Z,5.25
2023-02-28T09:37:07.180Z,8.38
2023-02-28T09:39:54.273Z,5.72
2023-02-28T09:42:41.544Z,7.22
2023-02-28T09:45:37.501Z,7.22
2023-02-28T09:48:33.716Z,5.58
2023-02-28T09:51:38.518Z,8.77
2023-02-28T09:54:28.119Z,5.67
2023-02-28T09:57:42.149Z,5.22
2023-02-28T10:00:38.109Z,7.75
2023-02-28T10:03:40.209Z,6.45
2023-02-28T10:06:33.483Z,8.00
2023-02-28T10:09:26.597Z,6.65
2023-02-28T10:12:14.840Z,6.42
2023-02-28T10:15:03.487Z,7.28
2023-02-28T10:18:00.755Z,6.83
2023-02-28T10:20:44.619Z,5.87
2023-02-28T10:23:34.825Z,6.80
2023-02-28T10:26:22.098Z,6.53
2023-02-28T10:29:11.487Z,18.75
2023-02-28T10:31:58.750Z,5.55
2023-02-28T10:34:46.494Z,7.78
2023-02-28T10:37:36.413Z,6.17
2023-02-28T10:40:26.412Z,6.95
2023-02-28T10:43:19.782Z,8.28
2023-02-28T10:46:14.387Z,7.53
2023-02-28T10:49:04.401Z,5.70
2023-02-28T10:51:54.249Z,7.00
2023-02-28T10:54:41.873Z,7.30
2023-02-28T10:57:30.606Z,7.10
2023-02-28T11:00:23.248Z,6.47
2023-02-28T11:03:13.593Z,8.50
2023-02-28T11:06:03.109Z,5.95
2023-02-28T11:08:54.104Z,7.75
2023-02-28T11:11:47.362Z,7.05
2023-02-28T11:14:37.468Z,6.90
2023-02-28T11:17:28.148Z,6.92
2023-02-28T11:20:18.381Z,6.30
2023-02-28T11:23:06.932Z,7.35
2023-02-28T11:25:58.026Z,7.00
2023-02-28T11:28:45.485Z,4.65
2023-02-28T11:31:33.217Z,6.70
2023-02-28T11:34:28.670Z,6.25
2023-02-28T11:37:18.824Z,7.97
2023-02-28T11:40:16.988Z,6.75
2023-02-28T11:43:07.214Z,6.62
2023-02-28T11:46:12.590Z,9.63
2023-02-28T11:49:18.906Z,7.33
2023-02-28T11:52:23.867Z,6.80
2023-02-28T11:55:16.652Z,5.92
2023-02-28T11:58:38.313Z,5.72
2023-02-28T12:01:28.699Z,7.25
2023-02-28T12:04:38.339Z,6.78
2023-02-28T12:07:37.554Z,5.05
2023-02-28T12:10:33.643Z,7.17
2023-02-28T12:13:32.030Z,6.28
2023-02-28T12:16:37.166Z,8.25
2023-02-28T12:19:36.176Z,9.65
2023-02-28T12:22:30.133Z,6.35
2023-02-28T12:25:47.973Z,8.90
2023-02-28T12:31:32.581Z,7.95
2023-02-28T12:34:22.740Z,7.80
2023-02-28T12:37:18.943Z,8.53
2023-02-28T12:40:16.876Z,6.80
2023-02-28T12:43:09.965Z,7.47
2023-02-28T12:46:21.530Z,6.83
2023-02-28T12:49:12.093Z,9.30
2023-02-28T12:52:01.989Z,6.80
2023-02-28T12:54:58.447Z,7.33
2023-02-28T12:57:48.892Z,7.03
2023-02-28T13:00:39.644Z,10.82
2023-02-28T13:03:52.427Z,8.95
2023-02-28T13:07:17.097Z,8.05
2023-02-28T13:10:07.360Z,7.75
2023-02-28T13:12:57.589Z,7.45
2023-02-28T13:16:00.907Z,8.13
2023-02-28T13:18:50.336Z,8.30
2023-02-28T13:21:40.560Z,7.62
2023-02-28T13:24:45.768Z,9.50
2023-02-28T13:27:41.612Z,6.87
2023-02-28T13:30:56.453Z,8.73
2023-02-28T13:33:58.937Z,10.23
2023-02-28T13:36:46.464Z,10.93
2023-02-28T13:39:39.303Z,10.05
2023-02-28T13:42:39.229Z,8.05
2023-02-28T13:45:29.161Z,7.53
2023-02-28T13:48:22.809Z,8.68
2023-02-28T13:51:41.931Z,8.53
2023-02-28T13:54:59.503Z,6.85
2023-02-28T13:57:59.000Z,6.30
2023-02-28T14:00:49.154Z,8.70
2023-02-28T14:04:08.168Z,8.75
2023-02-28T14:06:57.816Z,6.97
2023-02-28T14:09:51.085Z,6.50
2023-02-28T14:13:14.589Z,8.40
2023-02-28T14:16:03.104Z,7.97
2023-02-28T14:19:02.467Z,7.58
2023-02-28T14:22:01.955Z,7.58
2023-02-28T14:25:20.924Z,7.55
2023-02-28T14:28:36.649Z,7.28
2023-02-28T14:31:42.498Z,12.00
2023-02-28T14:34:35.808Z,8.68
2023-02-28T14:37:29.146Z,8.63
2023-02-28T14:40:24.825Z,8.25
2023-02-28T14:43:24.444Z,9.38
2023-02-28T14:46:14.356Z,8.63
2023-02-28T14:49:02.004Z,11.00
2023-02-28T14:51:55.001Z,9.90
2023-02-28T14:54:43.074Z,7.35
2023-02-28T14:57:32.408Z,8.53
2023-02-28T15:00:25.247Z,12.43
2023-02-28T15:03:27.668Z,9.63
2023-02-28T15:06:18.855Z,10.05
2023-02-28T15:09:11.696Z,7.85
2023-02-28T15:11:58.755Z,8.08
2023-02-28T15:14:46.750Z,9.20
2023-02-28T15:17:34.467Z,7.85
2023-02-28T15:20:22.095Z,11.70
2023-02-28T15:23:09.921Z,7.45
2023-02-28T15:25:57.594Z,8.93
2023-02-28T15:28:45.696Z,9.05
2023-02-28T15:31:56.886Z,8.83
2023-02-28T15:34:43.558Z,9.60
2023-02-28T15:37:42.767Z,7.62
2023-02-28T15:40:33.192Z,7.40
2023-02-28T15:43:26.828Z,8.83
2023-02-28T15:46:16.852Z,7.20
2023-02-28T15:49:04.498Z,7.62
2023-02-28T15:51:55.306Z,8.48
2023-02-28T15:54:43.759Z,8.05
2023-02-28T15:57:31.612Z,8.30
2023-02-28T16:00:21.954Z,8.63
2023-02-28T16:03:29.468Z,7.15
2023-02-28T16:06:22.555Z,9.00
2023-02-28T16:09:12.856Z,9.03
2023-02-28T16:12:05.079Z,13.25
2023-02-28T16:14:54.478Z,9.23
2023-02-28T16:17:41.833Z,10.25
2023-02-28T16:20:32.319Z,9.28
2023-02-28T16:23:19.200Z,11.48
2023-02-28T16:26:08.232Z,9.95
2023-02-28T16:28:56.394Z,12.60
2023-02-28T16:31:43.580Z,11.88
2023-02-28T16:34:31.214Z,14.43
2023-02-28T16:37:19.959Z,10.45
2023-02-28T16:40:09.178Z,8.48
2023-02-28T16:42:59.850Z,9.73
2023-02-28T16:45:47.827Z,12.58
2023-02-28T16:48:35.059Z,14.28
2023-02-28T16:51:22.361Z,9.40
2023-02-28T16:54:09.359Z,9.53
2023-02-28T16:56:56.990Z,9.28
2023-02-28T16:59:44.426Z,9.88
2023-02-28T17:02:32.195Z,11.08
2023-02-28T17:05:20.018Z,9.13
2023-02-28T17:08:07.130Z,9.68
2023-02-28T17:10:54.125Z,11.33
2023-02-28T17:13:41.136Z,11.28
2023-02-28T17:16:34.095Z,9.83
2023-02-28T17:19:21.389Z,13.00
2023-02-28T17:22:10.428Z,9.85
2023-02-28T17:24:58.611Z,9.43
2023-02-28T17:27:46.910Z,8.93
2023-02-28T17:30:36.251Z,13.10
2023-02-28T17:33:23.472Z,10.85
2023-02-28T17:36:16.024Z,9.58
2023-02-28T17:39:03.977Z,8.78
2023-02-28T17:41:52.667Z,9.98
2023-02-28T17:44:40.008Z,9.98
2023-02-28T17:47:27.324Z,15.98
2023-02-28T17:50:20.518Z,9.45
2023-02-28T17:53:08.023Z,8.25
2023-02-28T17:55:55.089Z,10.40
2023-02-28T17:58:42.719Z,9.83
2023-02-28T18:01:30.489Z,8.60
2023-02-28T18:04:17.541Z,10.78
2023-02-28T18:07:05.284Z,8.88
2023-02-28T18:09:52.835Z,12.30
2023-02-28T18:12:40.028Z,10.85
2023-02-28T18:15:27.813Z,9.98
2023-02-28T18:18:16.662Z,10.32
2023-02-28T18:21:07.066Z,9.23
2023-02-28T18:23:54.337Z,8.70
2023-02-28T18:26:41.861Z,10.20
2023-02-28T18:29:30.166Z,8.83
2023-02-28T18:32:17.449Z,15.78
2023-02-28T18:35:05.057Z,9.88
2023-02-28T18:37:52.329Z,10.53
2023-02-28T18:40:40.342Z,11.38
2023-02-28T18:43:28.982Z,10.00
2023-02-28T18:46:18.579Z,12.35
2023-02-28T18:49:06.202Z,12.15
2023-02-28T18:51:55.015Z,8.85
2023-02-28T18:54:42.199Z,12.40
2023-02-28T18:57:29.897Z,9.90
2023-02-28T19:00:22.423Z,14.68
2023-02-28T19:03:10.419Z,13.43
2023-02-28T19:05:59.198Z,8.93
2023-02-28T19:08:47.190Z,11.90
2023-02-28T19:11:36.603Z,11.35
2023-02-28T19:14:23.739Z,10.38
2023-02-28T19:17:11.096Z,14.15
2023-02-28T19:19:58.681Z,15.95
2023-02-28T19:22:46.146Z,13.03
2023-02-28T19:25:33.320Z,12.05
2023-02-28T19:28:20.461Z,12.43
2023-02-28T19:31:19.985Z,15.20
2023-02-28T19:34:07.322Z,10.85
2023-02-28T19:36:54.401Z,14.00
2023-02-28T19:39:46.151Z,12.63
2023-02-28T19:42:34.981Z,11.48
2023-02-28T19:45:22.315Z,12.20
2023-02-28T19:48:09.742Z,13.00
2023-02-28T19:51:02.332Z,11.50
2023-02-28T19:53:49.708Z,14.65
2023-02-28T19:56:37.024Z,11.70
2023-02-28T19:59:35.674Z,14.58
2023-02-28T20:02:17.711Z,12.68
2023-02-28T20:05:05.391Z,15.55
2023-02-28T20:07:52.610Z,14.90
2023-02-28T20:10:40.727Z,15.72
2023-02-28T20:13:28.640Z,10.72
2023-02-28T20:16:16.656Z,10.00
2023-02-28T20:19:03.852Z,16.45
2023-02-28T20:21:51.239Z,13.30
2023-02-28T20:24:38.615Z,10.65
2023-02-28T20:27:26.013Z,9.28
2023-02-28T20:30:13.819Z,12.40
2023-02-28T20:33:00.811Z,10.58
2023-02-28T20:35:49.482Z,16.42
2023-02-28T20:38:37.129Z,14.07
2023-02-28T20:41:24.582Z,12.30
2023-02-28T20:44:14.155Z,16.52
2023-02-28T20:47:01.260Z,14.50
2023-02-28T20:49:48.636Z,12.68
2023-02-28T20:52:35.947Z,15.48
2023-02-28T20:55:23.558Z,12.78
2023-02-28T20:58:11.308Z,15.08
2023-02-28T21:01:15.341Z,13.75
2023-02-28T21:04:08.977Z,13.62
2023-02-28T21:06:56.462Z,13.30
2023-02-28T21:09:43.874Z,16.48
2023-02-28T21:12:31.315Z,17.05
2023-02-28T21:15:18.781Z,14.18
2023-02-28T21:18:07.717Z,16.48
2023-02-28T21:20:54.745Z,12.00
2023-02-28T21:23:42.645Z,13.03
2023-02-28T21:26:30.362Z,17.87
2023-02-28T21:29:18.386Z,14.47
2023-02-28T21:32:09.550Z,19.62
2023-02-28T21:34:56.709Z,19.10
2023-02-28T21:37:44.072Z,16.57
2023-02-28T21:40:31.412Z,15.25
2023-02-28T21:43:18.509Z,15.13
2023-02-28T21:46:09.302Z,16.90
2023-02-28T21:48:57.676Z,15.63
2023-02-28T21:51:45.519Z,16.00
2023-02-28T21:54:33.053Z,16.48
2023-02-28T21:57:20.625Z,16.50
2023-02-28T22:00:10.048Z,14.73
2023-02-28T22:02:57.179Z,16.73
2023-02-28T22:05:44.775Z,15.75
2023-02-28T22:08:32.016Z,20.90
2023-02-28T22:11:19.631Z,15.80
2023-02-28T22:14:09.306Z,16.48
2023-02-28T22:16:57.189Z,18.25
2023-02-28T22:19:44.301Z,15.88
2023-02-28T22:22:31.698Z,17.23
2023-02-28T22:25:19.279Z,21.77
2023-02-28T22:28:06.286Z,18.02
2023-02-28T22:30:53.613Z,15.63
2023-02-28T22:33:41.434Z,16.73
2023-02-28T22:36:30.334Z,16.15
2023-02-28T22:39:17.389Z,16.27
2023-02-28T22:42:04.899Z,17.87
2023-02-28T22:44:52.502Z,16.80
2023-02-28T22:47:39.707Z,17.40
2023-02-28T22:50:27.114Z,15.23
2023-02-28T22:53:14.217Z,18.45
2023-02-28T22:56:01.984Z,17.07
2023-02-28T22:58:54.404Z,19.05
2023-02-28T23:01:44.092Z,16.45
2023-02-28T23:04:31.420Z,18.07
2023-02-28T23:07:18.574Z,18.75
2023-02-28T23:10:08.497Z,19.07
2023-02-28T23:12:55.839Z,15.43
2023-02-28T23:15:42.948Z,15.53
2023-02-28T23:18:30.060Z,17.25
2023-02-28T23:21:17.266Z,16.82
2023-02-28T23:24:08.075Z,15.50
2023-02-28T23:26:58.282Z,17.85
2023-02-28T23:29:45.937Z,18.77
2023-02-28T23:32:33.565Z,19.75
2023-02-28T23:35:20.796Z,19.05
2023-02-28T23:38:08.143Z,18.48
2023-02-28T23:40:55.605Z,17.75
2023-02-28T23:43:42.968Z,15.83
2023-02-28T23:46:30.578Z,16.45
2023-02-28T23:49:19.852Z,20.52
2023-02-28T23:52:07.265Z,16.70
2023-02-28T23:54:54.496Z,16.45
2023-02-28T23:57:41.683Z,17.60
